sensor_id;sensor_type;location;lat;lon;timestamp;temperature;humidity
13336;DHT22;6737;51.480;11.962;2022-07-09T00:00:48;15.50;99.90
13336;DHT22;6737;51.480;11.962;2022-07-09T00:03:14;15.50;99.90
13336;DHT22;6737;51.480;11.962;2022-07-09T00:05:40;15.50;99.90
13336;DHT22;6737;51.480;11.962;2022-07-09T00:08:06;15.50;99.90
13336;DHT22;6737;51.480;11.962;2022-07-09T00:10:32;15.50;99.90
13336;DHT22;6737;51.480;11.962;2022-07-09T00:12:57;15.50;99.90
13336;DHT22;6737;51.480;11.962;2022-07-09T00:15:23;15.40;99.90
13336;DHT22;6737;51.480;11.962;2022-07-09T00:17:51;15.50;99.90
13336;DHT22;6737;51.480;11.962;2022-07-09T00:20:17;15.50;99.90
13336;DHT22;6737;51.480;11.962;2022-07-09T00:22:43;15.50;99.90
13336;DHT22;6737;51.480;11.962;2022-07-09T00:25:09;15.40;99.90
13336;DHT22;6737;51.480;11.962;2022-07-09T00:27:35;15.40;99.90
13336;DHT22;6737;51.480;11.962;2022-07-09T00:30:01;15.40;99.90
13336;DHT22;6737;51.480;11.962;2022-07-09T00:32:27;15.40;99.90
13336;DHT22;6737;51.480;11.962;2022-07-09T00:34:53;15.40;99.90
13336;DHT22;6737;51.480;11.962;2022-07-09T00:37:19;15.40;99.90
13336;DHT22;6737;51.480;11.962;2022-07-09T00:39:45;15.40;99.90
13336;DHT22;6737;51.480;11.962;2022-07-09T00:42:11;15.30;99.90
13336;DHT22;6737;51.480;11.962;2022-07-09T00:44:38;15.30;99.90
13336;DHT22;6737;51.480;11.962;2022-07-09T00:47:06;15.30;99.90
13336;DHT22;6737;51.480;11.962;2022-07-09T00:49:37;15.30;99.90
13336;DHT22;6737;51.480;11.962;2022-07-09T00:52:05;15.30;99.90
13336;DHT22;6737;51.480;11.962;2022-07-09T00:54:32;15.20;99.90
13336;DHT22;6737;51.480;11.962;2022-07-09T00:56:59;15.30;99.90
13336;DHT22;6737;51.480;11.962;2022-07-09T00:59:25;15.30;99.90
13336;DHT22;6737;51.480;11.962;2022-07-09T01:01:51;15.20;99.90
13336;DHT22;6737;51.480;11.962;2022-07-09T01:04:18;15.20;99.90
13336;DHT22;6737;51.480;11.962;2022-07-09T01:06:44;15.20;99.90
13336;DHT22;6737;51.480;11.962;2022-07-09T01:09:10;15.20;99.90
13336;DHT22;6737;51.480;11.962;2022-07-09T01:11:36;15.20;99.90
13336;DHT22;6737;51.480;11.962;2022-07-09T01:14:03;15.10;99.90
13336;DHT22;6737;51.480;11.962;2022-07-09T01:16:33;15.10;99.90
13336;DHT22;6737;51.480;11.962;2022-07-09T01:19:00;15.10;99.90
13336;DHT22;6737;51.480;11.962;2022-07-09T01:21:26;15.10;99.90
13336;DHT22;6737;51.480;11.962;2022-07-09T01:23:52;15.10;99.90
13336;DHT22;6737;51.480;11.962;2022-07-09T01:26:18;15.10;99.90
13336;DHT22;6737;51.480;11.962;2022-07-09T01:28:46;15.10;99.90
13336;DHT22;6737;51.480;11.962;2022-07-09T01:31:13;15.10;99.90
13336;DHT22;6737;51.480;11.962;2022-07-09T01:33:39;15.00;99.90
13336;DHT22;6737;51.480;11.962;2022-07-09T01:36:07;15.00;99.90
13336;DHT22;6737;51.480;11.962;2022-07-09T01:38:32;15.00;99.90
13336;DHT22;6737;51.480;11.962;2022-07-09T01:40:58;15.00;99.90
13336;DHT22;6737;51.480;11.962;2022-07-09T01:43:24;15.00;99.90
13336;DHT22;6737;51.480;11.962;2022-07-09T01:45:51;15.00;99.90
13336;DHT22;6737;51.480;11.962;2022-07-09T01:48:17;15.10;99.90
13336;DHT22;6737;51.480;11.962;2022-07-09T01:50:43;15.10;99.90
13336;DHT22;6737;51.480;11.962;2022-07-09T01:53:09;15.00;99.90
13336;DHT22;6737;51.480;11.962;2022-07-09T01:55:35;15.00;99.90
13336;DHT22;6737;51.480;11.962;2022-07-09T01:58:01;15.00;99.90
13336;DHT22;6737;51.480;11.962;2022-07-09T02:00:27;15.00;99.90
13336;DHT22;6737;51.480;11.962;2022-07-09T02:02:55;15.00;99.90
13336;DHT22;6737;51.480;11.962;2022-07-09T02:05:21;15.00;99.90
13336;DHT22;6737;51.480;11.962;2022-07-09T02:07:48;15.00;99.90
13336;DHT22;6737;51.480;11.962;2022-07-09T02:10:15;15.00;99.90
13336;DHT22;6737;51.480;11.962;2022-07-09T02:12:42;15.00;99.90
13336;DHT22;6737;51.480;11.962;2022-07-09T02:15:08;15.00;99.90
13336;DHT22;6737;51.480;11.962;2022-07-09T02:17:37;15.00;99.90
13336;DHT22;6737;51.480;11.962;2022-07-09T02:20:03;15.10;99.90
13336;DHT22;6737;51.480;11.962;2022-07-09T02:22:29;15.00;99.90
13336;DHT22;6737;51.480;11.962;2022-07-09T02:24:56;15.00;99.90
13336;DHT22;6737;51.480;11.962;2022-07-09T02:27:22;15.00;99.90
13336;DHT22;6737;51.480;11.962;2022-07-09T02:29:49;15.00;99.90
13336;DHT22;6737;51.480;11.962;2022-07-09T02:32:15;15.00;99.90
13336;DHT22;6737;51.480;11.962;2022-07-09T02:34:41;15.00;99.90
13336;DHT22;6737;51.480;11.962;2022-07-09T02:37:07;14.90;99.90
13336;DHT22;6737;51.480;11.962;2022-07-09T02:39:34;14.90;99.90
13336;DHT22;6737;51.480;11.962;2022-07-09T02:42:00;14.90;99.90
13336;DHT22;6737;51.480;11.962;2022-07-09T02:44:26;14.90;99.90
13336;DHT22;6737;51.480;11.962;2022-07-09T02:46:52;14.90;99.90
13336;DHT22;6737;51.480;11.962;2022-07-09T02:49:17;14.80;99.90
13336;DHT22;6737;51.480;11.962;2022-07-09T02:51:43;14.80;99.90
13336;DHT22;6737;51.480;11.962;2022-07-09T02:54:09;14.80;99.90
13336;DHT22;6737;51.480;11.962;2022-07-09T02:56:35;14.80;99.90
13336;DHT22;6737;51.480;11.962;2022-07-09T02:59:01;14.80;99.90
13336;DHT22;6737;51.480;11.962;2022-07-09T03:01:28;14.80;99.90
13336;DHT22;6737;51.480;11.962;2022-07-09T03:03:54;14.80;99.90
13336;DHT22;6737;51.480;11.962;2022-07-09T03:06:21;14.70;99.90
13336;DHT22;6737;51.480;11.962;2022-07-09T03:08:47;14.70;99.90
13336;DHT22;6737;51.480;11.962;2022-07-09T03:11:12;14.80;99.90
13336;DHT22;6737;51.480;11.962;2022-07-09T03:13:38;14.80;99.90
13336;DHT22;6737;51.480;11.962;2022-07-09T03:16:04;14.80;99.90
13336;DHT22;6737;51.480;11.962;2022-07-09T03:18:31;14.80;99.90
13336;DHT22;6737;51.480;11.962;2022-07-09T03:20:57;14.80;99.90
13336;DHT22;6737;51.480;11.962;2022-07-09T03:23:23;14.80;99.90
13336;DHT22;6737;51.480;11.962;2022-07-09T03:25:48;14.80;99.90
13336;DHT22;6737;51.480;11.962;2022-07-09T03:28:14;14.80;99.90
13336;DHT22;6737;51.480;11.962;2022-07-09T03:30:40;14.90;99.90
13336;DHT22;6737;51.480;11.962;2022-07-09T03:33:06;14.90;99.90
13336;DHT22;6737;51.480;11.962;2022-07-09T03:35:32;14.90;99.90
13336;DHT22;6737;51.480;11.962;2022-07-09T03:37:58;14.90;99.90
13336;DHT22;6737;51.480;11.962;2022-07-09T03:40:24;14.90;99.90
13336;DHT22;6737;51.480;11.962;2022-07-09T03:42:50;14.90;99.90
13336;DHT22;6737;51.480;11.962;2022-07-09T03:45:15;14.90;99.90
13336;DHT22;6737;51.480;11.962;2022-07-09T03:47:41;14.90;99.90
13336;DHT22;6737;51.480;11.962;2022-07-09T03:50:07;15.00;99.90
13336;DHT22;6737;51.480;11.962;2022-07-09T03:52:33;15.00;99.90
13336;DHT22;6737;51.480;11.962;2022-07-09T03:54:59;15.00;99.90
13336;DHT22;6737;51.480;11.962;2022-07-09T03:57:26;15.10;99.90
13336;DHT22;6737;51.480;11.962;2022-07-09T03:59:51;15.10;99.90
13336;DHT22;6737;51.480;11.962;2022-07-09T04:02:17;15.20;99.90
13336;DHT22;6737;51.480;11.962;2022-07-09T04:04:43;15.20;99.90
13336;DHT22;6737;51.480;11.962;2022-07-09T04:07:10;15.20;99.90
13336;DHT22;6737;51.480;11.962;2022-07-09T04:09:36;15.20;99.90
13336;DHT22;6737;51.480;11.962;2022-07-09T04:12:02;15.30;99.90
13336;DHT22;6737;51.480;11.962;2022-07-09T04:14:28;15.30;99.90
13336;DHT22;6737;51.480;11.962;2022-07-09T04:16:54;15.40;99.90
13336;DHT22;6737;51.480;11.962;2022-07-09T04:19:20;15.40;99.90
13336;DHT22;6737;51.480;11.962;2022-07-09T04:21:46;15.40;99.90
13336;DHT22;6737;51.480;11.962;2022-07-09T04:24:12;15.40;99.90
13336;DHT22;6737;51.480;11.962;2022-07-09T04:26:38;15.50;99.90
13336;DHT22;6737;51.480;11.962;2022-07-09T04:29:03;15.50;99.90
13336;DHT22;6737;51.480;11.962;2022-07-09T04:31:29;15.60;99.90
13336;DHT22;6737;51.480;11.962;2022-07-09T04:33:55;15.60;99.90
13336;DHT22;6737;51.480;11.962;2022-07-09T04:36:21;15.60;99.90
13336;DHT22;6737;51.480;11.962;2022-07-09T04:38:46;15.70;99.90
13336;DHT22;6737;51.480;11.962;2022-07-09T04:41:12;15.70;99.90
13336;DHT22;6737;51.480;11.962;2022-07-09T04:43:38;15.70;99.90
13336;DHT22;6737;51.480;11.962;2022-07-09T04:46:04;15.70;99.90
13336;DHT22;6737;51.480;11.962;2022-07-09T04:48:29;15.70;99.90
13336;DHT22;6737;51.480;11.962;2022-07-09T04:50:55;15.80;99.90
13336;DHT22;6737;51.480;11.962;2022-07-09T04:53:21;15.80;99.90
13336;DHT22;6737;51.480;11.962;2022-07-09T04:55:47;15.80;99.90
13336;DHT22;6737;51.480;11.962;2022-07-09T04:58:14;15.80;99.90
13336;DHT22;6737;51.480;11.962;2022-07-09T05:00:40;15.90;99.90
13336;DHT22;6737;51.480;11.962;2022-07-09T05:03:05;15.90;99.90
13336;DHT22;6737;51.480;11.962;2022-07-09T05:05:31;15.90;99.90
13336;DHT22;6737;51.480;11.962;2022-07-09T05:07:57;15.90;99.90
13336;DHT22;6737;51.480;11.962;2022-07-09T05:10:23;15.90;99.90
13336;DHT22;6737;51.480;11.962;2022-07-09T05:12:49;15.90;99.90
13336;DHT22;6737;51.480;11.962;2022-07-09T05:15:16;15.90;99.90
13336;DHT22;6737;51.480;11.962;2022-07-09T05:17:42;15.90;99.90
13336;DHT22;6737;51.480;11.962;2022-07-09T05:20:09;15.90;99.90
13336;DHT22;6737;51.480;11.962;2022-07-09T05:22:36;15.90;99.90
13336;DHT22;6737;51.480;11.962;2022-07-09T05:25:04;16.00;99.90
13336;DHT22;6737;51.480;11.962;2022-07-09T05:27:31;16.00;99.90
13336;DHT22;6737;51.480;11.962;2022-07-09T05:29:57;16.00;99.90
13336;DHT22;6737;51.480;11.962;2022-07-09T05:32:23;16.00;99.90
13336;DHT22;6737;51.480;11.962;2022-07-09T05:34:49;16.00;99.90
13336;DHT22;6737;51.480;11.962;2022-07-09T05:37:16;16.00;99.90
13336;DHT22;6737;51.480;11.962;2022-07-09T05:39:41;16.10;99.90
13336;DHT22;6737;51.480;11.962;2022-07-09T05:42:07;16.10;99.90
13336;DHT22;6737;51.480;11.962;2022-07-09T05:44:33;16.10;99.90
13336;DHT22;6737;51.480;11.962;2022-07-09T05:46:59;16.10;99.90
13336;DHT22;6737;51.480;11.962;2022-07-09T05:49:25;16.20;99.90
13336;DHT22;6737;51.480;11.962;2022-07-09T05:51:51;16.20;99.90
13336;DHT22;6737;51.480;11.962;2022-07-09T05:54:17;16.20;99.90
13336;DHT22;6737;51.480;11.962;2022-07-09T05:56:43;16.20;99.90
13336;DHT22;6737;51.480;11.962;2022-07-09T05:59:12;16.20;99.90
13336;DHT22;6737;51.480;11.962;2022-07-09T06:01:38;16.10;99.90
13336;DHT22;6737;51.480;11.962;2022-07-09T06:04:08;16.10;99.90
13336;DHT22;6737;51.480;11.962;2022-07-09T06:06:35;16.10;99.90
13336;DHT22;6737;51.480;11.962;2022-07-09T06:09:01;16.10;99.90
13336;DHT22;6737;51.480;11.962;2022-07-09T06:11:27;16.20;99.90
13336;DHT22;6737;51.480;11.962;2022-07-09T06:13:52;16.20;99.90
13336;DHT22;6737;51.480;11.962;2022-07-09T06:16:18;16.20;99.90
13336;DHT22;6737;51.480;11.962;2022-07-09T06:18:44;16.20;99.90
13336;DHT22;6737;51.480;11.962;2022-07-09T06:21:10;16.30;99.90
13336;DHT22;6737;51.480;11.962;2022-07-09T06:23:36;16.30;99.90
13336;DHT22;6737;51.480;11.962;2022-07-09T06:26:02;16.30;99.90
13336;DHT22;6737;51.480;11.962;2022-07-09T06:28:27;16.30;99.90
13336;DHT22;6737;51.480;11.962;2022-07-09T06:30:53;16.40;99.90
13336;DHT22;6737;51.480;11.962;2022-07-09T06:33:19;16.40;99.90
13336;DHT22;6737;51.480;11.962;2022-07-09T06:35:45;16.40;99.90
13336;DHT22;6737;51.480;11.962;2022-07-09T06:38:11;16.40;99.90
13336;DHT22;6737;51.480;11.962;2022-07-09T06:40:36;16.40;99.90
13336;DHT22;6737;51.480;11.962;2022-07-09T06:43:03;16.40;99.90
13336;DHT22;6737;51.480;11.962;2022-07-09T06:45:28;16.40;99.90
13336;DHT22;6737;51.480;11.962;2022-07-09T06:47:54;16.40;99.90
13336;DHT22;6737;51.480;11.962;2022-07-09T06:50:21;16.40;99.90
13336;DHT22;6737;51.480;11.962;2022-07-09T06:52:46;16.40;99.90
13336;DHT22;6737;51.480;11.962;2022-07-09T06:55:12;16.30;99.90
13336;DHT22;6737;51.480;11.962;2022-07-09T06:57:38;16.40;99.90
13336;DHT22;6737;51.480;11.962;2022-07-09T07:00:05;16.40;99.90
13336;DHT22;6737;51.480;11.962;2022-07-09T07:02:31;16.40;99.90
13336;DHT22;6737;51.480;11.962;2022-07-09T07:04:57;16.40;99.90
13336;DHT22;6737;51.480;11.962;2022-07-09T07:07:22;16.40;99.90
13336;DHT22;6737;51.480;11.962;2022-07-09T07:09:48;16.40;99.90
13336;DHT22;6737;51.480;11.962;2022-07-09T07:12:14;16.50;99.90
13336;DHT22;6737;51.480;11.962;2022-07-09T07:14:40;16.50;99.90
13336;DHT22;6737;51.480;11.962;2022-07-09T07:17:07;16.50;99.90
13336;DHT22;6737;51.480;11.962;2022-07-09T07:19:33;16.50;99.90
13336;DHT22;6737;51.480;11.962;2022-07-09T07:21:59;16.50;99.90
13336;DHT22;6737;51.480;11.962;2022-07-09T07:24:25;16.50;99.90
13336;DHT22;6737;51.480;11.962;2022-07-09T07:26:50;16.50;99.90
13336;DHT22;6737;51.480;11.962;2022-07-09T07:29:17;16.60;99.90
13336;DHT22;6737;51.480;11.962;2022-07-09T07:31:43;16.60;99.90
13336;DHT22;6737;51.480;11.962;2022-07-09T07:34:08;16.60;99.90
13336;DHT22;6737;51.480;11.962;2022-07-09T07:36:34;16.60;99.90
13336;DHT22;6737;51.480;11.962;2022-07-09T07:39:00;16.70;99.90
13336;DHT22;6737;51.480;11.962;2022-07-09T07:41:26;16.70;99.90
13336;DHT22;6737;51.480;11.962;2022-07-09T07:43:52;16.80;99.90
13336;DHT22;6737;51.480;11.962;2022-07-09T07:46:17;16.80;99.90
13336;DHT22;6737;51.480;11.962;2022-07-09T07:48:43;16.90;99.90
13336;DHT22;6737;51.480;11.962;2022-07-09T07:51:09;17.00;99.90
13336;DHT22;6737;51.480;11.962;2022-07-09T07:53:36;17.00;99.90
13336;DHT22;6737;51.480;11.962;2022-07-09T07:56:05;17.10;99.90
13336;DHT22;6737;51.480;11.962;2022-07-09T07:58:31;17.10;99.90
13336;DHT22;6737;51.480;11.962;2022-07-09T08:00:57;17.20;99.90
13336;DHT22;6737;51.480;11.962;2022-07-09T08:03:23;17.30;99.90
13336;DHT22;6737;51.480;11.962;2022-07-09T08:05:49;17.30;99.90
13336;DHT22;6737;51.480;11.962;2022-07-09T08:08:15;17.40;99.90
13336;DHT22;6737;51.480;11.962;2022-07-09T08:10:45;17.30;99.90
13336;DHT22;6737;51.480;11.962;2022-07-09T08:13:12;17.30;99.90
13336;DHT22;6737;51.480;11.962;2022-07-09T08:15:38;17.30;99.90
13336;DHT22;6737;51.480;11.962;2022-07-09T08:18:05;17.30;99.90
13336;DHT22;6737;51.480;11.962;2022-07-09T08:20:31;17.40;99.90
13336;DHT22;6737;51.480;11.962;2022-07-09T08:22:58;17.40;99.90
13336;DHT22;6737;51.480;11.962;2022-07-09T08:25:24;17.40;99.90
13336;DHT22;6737;51.480;11.962;2022-07-09T08:27:50;17.40;99.90
13336;DHT22;6737;51.480;11.962;2022-07-09T08:30:16;17.50;99.90
13336;DHT22;6737;51.480;11.962;2022-07-09T08:32:41;17.40;99.90
13336;DHT22;6737;51.480;11.962;2022-07-09T08:35:08;17.40;99.90
13336;DHT22;6737;51.480;11.962;2022-07-09T08:37:34;17.40;99.90
13336;DHT22;6737;51.480;11.962;2022-07-09T08:40:00;17.30;99.90
13336;DHT22;6737;51.480;11.962;2022-07-09T08:42:27;17.30;99.90
13336;DHT22;6737;51.480;11.962;2022-07-09T08:44:54;17.30;99.90
13336;DHT22;6737;51.480;11.962;2022-07-09T08:47:20;17.30;99.90
13336;DHT22;6737;51.480;11.962;2022-07-09T08:49:47;17.30;99.90
13336;DHT22;6737;51.480;11.962;2022-07-09T08:52:15;17.30;99.90
13336;DHT22;6737;51.480;11.962;2022-07-09T08:54:43;17.30;99.90
13336;DHT22;6737;51.480;11.962;2022-07-09T08:57:09;17.30;99.90
13336;DHT22;6737;51.480;11.962;2022-07-09T08:59:35;17.30;99.90
13336;DHT22;6737;51.480;11.962;2022-07-09T09:02:05;17.40;99.90
13336;DHT22;6737;51.480;11.962;2022-07-09T09:04:32;17.50;99.90
13336;DHT22;6737;51.480;11.962;2022-07-09T09:07:21;17.60;99.90
13336;DHT22;6737;51.480;11.962;2022-07-09T09:09:49;17.70;99.90
13336;DHT22;6737;51.480;11.962;2022-07-09T09:12:15;17.90;99.90
13336;DHT22;6737;51.480;11.962;2022-07-09T09:14:48;18.00;99.90
13336;DHT22;6737;51.480;11.962;2022-07-09T09:17:15;18.10;99.90
13336;DHT22;6737;51.480;11.962;2022-07-09T09:19:41;18.20;99.90
13336;DHT22;6737;51.480;11.962;2022-07-09T09:22:07;18.30;99.90
13336;DHT22;6737;51.480;11.962;2022-07-09T09:24:34;18.40;99.90
13336;DHT22;6737;51.480;11.962;2022-07-09T09:27:01;18.60;99.90
13336;DHT22;6737;51.480;11.962;2022-07-09T09:29:28;18.70;99.90
13336;DHT22;6737;51.480;11.962;2022-07-09T09:31:54;18.70;99.90
13336;DHT22;6737;51.480;11.962;2022-07-09T09:34:22;18.80;99.90
13336;DHT22;6737;51.480;11.962;2022-07-09T09:36:49;18.90;99.90
13336;DHT22;6737;51.480;11.962;2022-07-09T09:39:27;18.80;99.90
13336;DHT22;6737;51.480;11.962;2022-07-09T09:41:58;18.70;99.90
13336;DHT22;6737;51.480;11.962;2022-07-09T09:44:30;18.70;99.90
13336;DHT22;6737;51.480;11.962;2022-07-09T09:46:58;18.80;99.90
13336;DHT22;6737;51.480;11.962;2022-07-09T09:49:24;18.80;99.90
13336;DHT22;6737;51.480;11.962;2022-07-09T09:52:03;18.80;99.90
13336;DHT22;6737;51.480;11.962;2022-07-09T09:54:32;18.90;99.90
13336;DHT22;6737;51.480;11.962;2022-07-09T09:56:59;19.00;99.90
13336;DHT22;6737;51.480;11.962;2022-07-09T09:59:26;19.20;99.90
13336;DHT22;6737;51.480;11.962;2022-07-09T10:01:52;19.40;99.90
13336;DHT22;6737;51.480;11.962;2022-07-09T10:04:18;19.40;99.90
13336;DHT22;6737;51.480;11.962;2022-07-09T10:06:45;19.40;99.90
13336;DHT22;6737;51.480;11.962;2022-07-09T10:09:12;19.40;99.90
13336;DHT22;6737;51.480;11.962;2022-07-09T10:11:43;19.40;99.90
13336;DHT22;6737;51.480;11.962;2022-07-09T10:14:34;19.30;99.90
13336;DHT22;6737;51.480;11.962;2022-07-09T10:17:14;19.30;99.90
13336;DHT22;6737;51.480;11.962;2022-07-09T10:20:03;19.30;99.90
13336;DHT22;6737;51.480;11.962;2022-07-09T10:22:39;19.30;99.90
13336;DHT22;6737;51.480;11.962;2022-07-09T10:25:07;19.30;99.90
13336;DHT22;6737;51.480;11.962;2022-07-09T10:27:44;19.30;99.90
13336;DHT22;6737;51.480;11.962;2022-07-09T10:30:28;19.40;99.90
13336;DHT22;6737;51.480;11.962;2022-07-09T10:33:05;19.40;99.90
13336;DHT22;6737;51.480;11.962;2022-07-09T10:35:39;19.40;99.90
13336;DHT22;6737;51.480;11.962;2022-07-09T10:38:07;19.50;99.90
13336;DHT22;6737;51.480;11.962;2022-07-09T10:40:57;19.60;99.90
13336;DHT22;6737;51.480;11.962;2022-07-09T10:43:42;19.70;99.90
13336;DHT22;6737;51.480;11.962;2022-07-09T10:46:14;19.80;99.90
13336;DHT22;6737;51.480;11.962;2022-07-09T10:48:41;19.80;99.90
13336;DHT22;6737;51.480;11.962;2022-07-09T10:51:07;19.80;99.90
13336;DHT22;6737;51.480;11.962;2022-07-09T10:53:33;19.80;99.90
13336;DHT22;6737;51.480;11.962;2022-07-09T10:55:59;19.70;99.90
13336;DHT22;6737;51.480;11.962;2022-07-09T10:58:25;19.70;99.90
13336;DHT22;6737;51.480;11.962;2022-07-09T11:00:55;19.70;99.90
13336;DHT22;6737;51.480;11.962;2022-07-09T11:03:26;19.70;99.90
13336;DHT22;6737;51.480;11.962;2022-07-09T11:05:52;19.70;99.90
13336;DHT22;6737;51.480;11.962;2022-07-09T11:08:18;19.70;99.90
13336;DHT22;6737;51.480;11.962;2022-07-09T11:10:44;19.70;99.90
13336;DHT22;6737;51.480;11.962;2022-07-09T11:13:10;19.70;99.90
13336;DHT22;6737;51.480;11.962;2022-07-09T11:15:37;19.60;99.90
13336;DHT22;6737;51.480;11.962;2022-07-09T11:20:32;19.60;99.90
13336;DHT22;6737;51.480;11.962;2022-07-09T11:22:59;19.60;99.90
13336;DHT22;6737;51.480;11.962;2022-07-09T11:25:28;19.60;99.90
13336;DHT22;6737;51.480;11.962;2022-07-09T11:27:58;19.60;99.90
13336;DHT22;6737;51.480;11.962;2022-07-09T11:30:25;19.60;99.90
13336;DHT22;6737;51.480;11.962;2022-07-09T11:32:51;19.60;99.90
13336;DHT22;6737;51.480;11.962;2022-07-09T11:35:31;19.80;99.90
13336;DHT22;6737;51.480;11.962;2022-07-09T11:37:59;19.80;99.90
13336;DHT22;6737;51.480;11.962;2022-07-09T11:40:25;19.80;99.90
13336;DHT22;6737;51.480;11.962;2022-07-09T11:42:51;19.80;99.90
13336;DHT22;6737;51.480;11.962;2022-07-09T11:45:22;19.80;99.90
13336;DHT22;6737;51.480;11.962;2022-07-09T11:47:48;19.90;99.90
13336;DHT22;6737;51.480;11.962;2022-07-09T11:50:16;19.90;99.90
13336;DHT22;6737;51.480;11.962;2022-07-09T11:52:50;20.00;99.90
13336;DHT22;6737;51.480;11.962;2022-07-09T11:55:27;20.00;99.90
13336;DHT22;6737;51.480;11.962;2022-07-09T11:57:57;20.10;99.90
13336;DHT22;6737;51.480;11.962;2022-07-09T12:00:28;20.10;99.90
13336;DHT22;6737;51.480;11.962;2022-07-09T12:02:55;20.10;99.90
13336;DHT22;6737;51.480;11.962;2022-07-09T12:05:32;20.10;99.90
13336;DHT22;6737;51.480;11.962;2022-07-09T12:08:05;20.10;99.90
13336;DHT22;6737;51.480;11.962;2022-07-09T12:10:34;20.10;99.90
13336;DHT22;6737;51.480;11.962;2022-07-09T12:13:00;20.10;99.90
13336;DHT22;6737;51.480;11.962;2022-07-09T12:15:27;20.10;99.90
13336;DHT22;6737;51.480;11.962;2022-07-09T12:17:55;20.00;99.90
13336;DHT22;6737;51.480;11.962;2022-07-09T12:20:23;20.00;99.90
13336;DHT22;6737;51.480;11.962;2022-07-09T12:22:50;19.90;99.90
13336;DHT22;6737;51.480;11.962;2022-07-09T12:25:16;19.90;99.90
13336;DHT22;6737;51.480;11.962;2022-07-09T12:27:42;19.80;99.90
13336;DHT22;6737;51.480;11.962;2022-07-09T12:30:08;19.80;99.90
13336;DHT22;6737;51.480;11.962;2022-07-09T12:32:34;19.80;99.90
13336;DHT22;6737;51.480;11.962;2022-07-09T12:35:01;19.70;99.90
13336;DHT22;6737;51.480;11.962;2022-07-09T12:37:27;19.60;99.90
13336;DHT22;6737;51.480;11.962;2022-07-09T12:39:58;19.60;99.90
13336;DHT22;6737;51.480;11.962;2022-07-09T12:42:24;19.50;99.90
13336;DHT22;6737;51.480;11.962;2022-07-09T12:44:50;19.20;99.90
13336;DHT22;6737;51.480;11.962;2022-07-09T12:47:16;19.10;99.90
13336;DHT22;6737;51.480;11.962;2022-07-09T12:49:43;18.90;99.90
13336;DHT22;6737;51.480;11.962;2022-07-09T12:52:09;18.70;99.90
13336;DHT22;6737;51.480;11.962;2022-07-09T12:54:35;18.70;99.90
13336;DHT22;6737;51.480;11.962;2022-07-09T12:57:00;18.60;99.90
13336;DHT22;6737;51.480;11.962;2022-07-09T12:59:26;18.50;99.90
13336;DHT22;6737;51.480;11.962;2022-07-09T13:01:52;18.50;99.90
13336;DHT22;6737;51.480;11.962;2022-07-09T13:04:18;18.40;99.90
13336;DHT22;6737;51.480;11.962;2022-07-09T13:06:44;18.40;99.90
13336;DHT22;6737;51.480;11.962;2022-07-09T13:09:10;18.40;99.90
13336;DHT22;6737;51.480;11.962;2022-07-09T13:11:37;18.30;99.90
13336;DHT22;6737;51.480;11.962;2022-07-09T13:14:03;18.30;99.90
13336;DHT22;6737;51.480;11.962;2022-07-09T13:16:29;18.30;99.90
13336;DHT22;6737;51.480;11.962;2022-07-09T13:18:55;18.40;99.90
13336;DHT22;6737;51.480;11.962;2022-07-09T13:21:22;18.40;99.90
13336;DHT22;6737;51.480;11.962;2022-07-09T13:23:49;18.40;99.90
13336;DHT22;6737;51.480;11.962;2022-07-09T13:26:16;18.50;99.90
13336;DHT22;6737;51.480;11.962;2022-07-09T13:28:42;18.60;99.90
13336;DHT22;6737;51.480;11.962;2022-07-09T13:31:09;18.70;99.90
13336;DHT22;6737;51.480;11.962;2022-07-09T13:33:36;18.80;99.90
13336;DHT22;6737;51.480;11.962;2022-07-09T13:36:03;18.90;99.90
13336;DHT22;6737;51.480;11.962;2022-07-09T13:38:30;19.10;99.90
13336;DHT22;6737;51.480;11.962;2022-07-09T13:40:57;19.30;99.90
13336;DHT22;6737;51.480;11.962;2022-07-09T13:43:23;19.40;99.90
13336;DHT22;6737;51.480;11.962;2022-07-09T13:45:52;19.50;99.90
13336;DHT22;6737;51.480;11.962;2022-07-09T13:48:20;19.70;99.90
13336;DHT22;6737;51.480;11.962;2022-07-09T13:50:46;20.00;99.90
13336;DHT22;6737;51.480;11.962;2022-07-09T13:53:12;20.20;99.90
13336;DHT22;6737;51.480;11.962;2022-07-09T13:55:38;20.40;99.90
13336;DHT22;6737;51.480;11.962;2022-07-09T13:58:03;20.70;99.90
13336;DHT22;6737;51.480;11.962;2022-07-09T14:00:29;20.90;99.90
13336;DHT22;6737;51.480;11.962;2022-07-09T14:02:56;20.90;99.90
13336;DHT22;6737;51.480;11.962;2022-07-09T14:05:22;20.90;99.90
13336;DHT22;6737;51.480;11.962;2022-07-09T14:07:47;20.90;99.90
13336;DHT22;6737;51.480;11.962;2022-07-09T14:10:13;20.90;99.90
13336;DHT22;6737;51.480;11.962;2022-07-09T14:12:39;20.90;99.90
13336;DHT22;6737;51.480;11.962;2022-07-09T14:15:06;21.00;99.90
13336;DHT22;6737;51.480;11.962;2022-07-09T14:17:32;21.10;99.90
13336;DHT22;6737;51.480;11.962;2022-07-09T14:19:57;21.00;99.90
13336;DHT22;6737;51.480;11.962;2022-07-09T14:22:26;20.90;99.90
13336;DHT22;6737;51.480;11.962;2022-07-09T14:24:53;20.80;99.90
13336;DHT22;6737;51.480;11.962;2022-07-09T14:27:19;20.80;99.90
13336;DHT22;6737;51.480;11.962;2022-07-09T14:29:45;20.80;99.90
13336;DHT22;6737;51.480;11.962;2022-07-09T14:32:11;20.80;99.90
13336;DHT22;6737;51.480;11.962;2022-07-09T14:34:37;20.90;99.90
13336;DHT22;6737;51.480;11.962;2022-07-09T14:37:06;21.00;99.90
13336;DHT22;6737;51.480;11.962;2022-07-09T14:39:32;21.10;99.90
13336;DHT22;6737;51.480;11.962;2022-07-09T14:41:58;21.10;99.90
13336;DHT22;6737;51.480;11.962;2022-07-09T14:44:24;21.10;99.90
13336;DHT22;6737;51.480;11.962;2022-07-09T14:46:50;21.20;99.90
13336;DHT22;6737;51.480;11.962;2022-07-09T14:49:17;21.30;99.90
13336;DHT22;6737;51.480;11.962;2022-07-09T14:51:42;21.40;99.90
13336;DHT22;6737;51.480;11.962;2022-07-09T14:54:08;21.40;99.90
13336;DHT22;6737;51.480;11.962;2022-07-09T14:56:34;21.40;99.90
13336;DHT22;6737;51.480;11.962;2022-07-09T14:59:00;21.30;99.90
13336;DHT22;6737;51.480;11.962;2022-07-09T15:01:26;21.30;99.90
13336;DHT22;6737;51.480;11.962;2022-07-09T15:03:52;21.30;99.90
13336;DHT22;6737;51.480;11.962;2022-07-09T15:06:18;21.20;99.90
13336;DHT22;6737;51.480;11.962;2022-07-09T15:08:44;21.10;99.90
13336;DHT22;6737;51.480;11.962;2022-07-09T15:11:10;20.90;99.90
13336;DHT22;6737;51.480;11.962;2022-07-09T15:13:37;20.90;99.90
13336;DHT22;6737;51.480;11.962;2022-07-09T15:16:03;20.90;99.90
13336;DHT22;6737;51.480;11.962;2022-07-09T15:18:29;20.90;99.90
13336;DHT22;6737;51.480;11.962;2022-07-09T15:20:55;20.90;99.90
13336;DHT22;6737;51.480;11.962;2022-07-09T15:23:20;21.00;99.90
13336;DHT22;6737;51.480;11.962;2022-07-09T15:25:48;21.00;99.90
13336;DHT22;6737;51.480;11.962;2022-07-09T15:28:15;21.10;99.90
13336;DHT22;6737;51.480;11.962;2022-07-09T15:30:41;21.20;99.90